Terminal Aerodrome Forecast
Issued by NWS Cleveland, OH

Home | Current Version | Previous Version | Graphics & Text | Print | Product List | Glossary On
Versions: 1 2 3 4 5 6 7 8 9 10 11 12 13 14 15 16 17
000
FTUS41 KCLE 081700
TAFMFD
TAF
KMFD 081724Z 0818/0918 25015G25KT P6SM VCSH BKN015 OVC035
      TEMPO 0818/0822 SCT015 OVC035
     FM082200 25012G20KT P6SM SCT025 BKN040 OVC100
     FM090100 25008KT P6SM SCT030 BKN200
     FM091100 26005KT 6SM BR BKN030
     FM091600 27010KT P6SM BKN040=

USA.gov is the U.S. government's official web portal to all federal, state and local government web resources and services.